sensor_id;sensor_type;location;lat;lon;timestamp;P1;durP1;ratioP1;P2;durP2;ratioP2
8885;SDS011;4479;51.162;13.906;2024-03-06T00:09:42;19.07;;;11.33;;
8885;SDS011;4479;51.162;13.906;2024-03-06T00:19:44;18.37;;;11.77;;
8885;SDS011;4479;51.162;13.906;2024-03-06T00:29:48;27.20;;;13.13;;
8885;SDS011;4479;51.162;13.906;2024-03-06T00:39:50;17.63;;;10.87;;
8885;SDS011;4479;51.162;13.906;2024-03-06T00:49:53;17.63;;;11.30;;
8885;SDS011;4479;51.162;13.906;2024-03-06T00:59:55;15.77;;;10.73;;
8885;SDS011;4479;51.162;13.906;2024-03-06T01:09:59;15.47;;;10.30;;
8885;SDS011;4479;51.162;13.906;2024-03-06T01:20:02;16.27;;;10.10;;
8885;SDS011;4479;51.162;13.906;2024-03-06T01:30:08;15.47;;;9.90;;
8885;SDS011;4479;51.162;13.906;2024-03-06T01:40:11;15.07;;;9.63;;
8885;SDS011;4479;51.162;13.906;2024-03-06T01:50:15;16.00;;;9.83;;
8885;SDS011;4479;51.162;13.906;2024-03-06T02:00:17;18.00;;;10.63;;
8885;SDS011;4479;51.162;13.906;2024-03-06T02:10:22;15.57;;;10.00;;
8885;SDS011;4479;51.162;13.906;2024-03-06T02:20:27;16.97;;;10.10;;
8885;SDS011;4479;51.162;13.906;2024-03-06T02:30:30;16.67;;;10.00;;
8885;SDS011;4479;51.162;13.906;2024-03-06T02:40:37;18.47;;;10.20;;
8885;SDS011;4479;51.162;13.906;2024-03-06T02:50:40;17.87;;;10.87;;
8885;SDS011;4479;51.162;13.906;2024-03-06T03:00:43;14.97;;;10.07;;
8885;SDS011;4479;51.162;13.906;2024-03-06T03:10:46;16.53;;;10.90;;
8885;SDS011;4479;51.162;13.906;2024-03-06T03:20:49;19.83;;;11.83;;
8885;SDS011;4479;51.162;13.906;2024-03-06T03:30:51;20.40;;;12.17;;
8885;SDS011;4479;51.162;13.906;2024-03-06T03:40:55;21.27;;;12.17;;
8885;SDS011;4479;51.162;13.906;2024-03-06T03:50:57;21.27;;;12.10;;
8885;SDS011;4479;51.162;13.906;2024-03-06T04:01:00;22.40;;;12.03;;
8885;SDS011;4479;51.162;13.906;2024-03-06T04:11:03;24.40;;;11.57;;
8885;SDS011;4479;51.162;13.906;2024-03-06T04:21:07;21.53;;;12.13;;
8885;SDS011;4479;51.162;13.906;2024-03-06T04:31:10;19.57;;;12.23;;
8885;SDS011;4479;51.162;13.906;2024-03-06T04:41:14;19.23;;;11.73;;
8885;SDS011;4479;51.162;13.906;2024-03-06T04:51:16;20.20;;;11.80;;
8885;SDS011;4479;51.162;13.906;2024-03-06T05:01:21;21.20;;;12.53;;
8885;SDS011;4479;51.162;13.906;2024-03-06T05:11:23;20.23;;;11.57;;
8885;SDS011;4479;51.162;13.906;2024-03-06T05:21:27;17.60;;;10.87;;
8885;SDS011;4479;51.162;13.906;2024-03-06T05:31:29;18.33;;;10.47;;
8885;SDS011;4479;51.162;13.906;2024-03-06T05:41:33;18.07;;;10.50;;
8885;SDS011;4479;51.162;13.906;2024-03-06T05:51:35;18.73;;;10.57;;
8885;SDS011;4479;51.162;13.906;2024-03-06T06:01:39;17.47;;;10.03;;
8885;SDS011;4479;51.162;13.906;2024-03-06T06:11:41;21.00;;;11.23;;
8885;SDS011;4479;51.162;13.906;2024-03-06T06:21:45;18.27;;;10.47;;
8885;SDS011;4479;51.162;13.906;2024-03-06T06:31:48;18.50;;;11.17;;
8885;SDS011;4479;51.162;13.906;2024-03-06T06:41:51;17.87;;;10.03;;
8885;SDS011;4479;51.162;13.906;2024-03-06T06:51:53;17.50;;;10.77;;
8885;SDS011;4479;51.162;13.906;2024-03-06T07:01:57;22.23;;;12.30;;
8885;SDS011;4479;51.162;13.906;2024-03-06T07:11:59;20.87;;;13.37;;
8885;SDS011;4479;51.162;13.906;2024-03-06T07:22:04;44.73;;;21.87;;
8885;SDS011;4479;51.162;13.906;2024-03-06T07:32:06;40.40;;;20.07;;
8885;SDS011;4479;51.162;13.906;2024-03-06T07:42:10;29.27;;;16.73;;
8885;SDS011;4479;51.162;13.906;2024-03-06T07:52:12;23.13;;;14.40;;
8885;SDS011;4479;51.162;13.906;2024-03-06T08:02:16;21.30;;;14.57;;
8885;SDS011;4479;51.162;13.906;2024-03-06T08:12:18;24.97;;;16.00;;
8885;SDS011;4479;51.162;13.906;2024-03-06T08:22:21;27.53;;;19.00;;
8885;SDS011;4479;51.162;13.906;2024-03-06T08:32:23;31.70;;;20.77;;
8885;SDS011;4479;51.162;13.906;2024-03-06T08:42:27;29.37;;;19.20;;
8885;SDS011;4479;51.162;13.906;2024-03-06T08:52:29;30.83;;;19.97;;
8885;SDS011;4479;51.162;13.906;2024-03-06T09:02:34;26.97;;;17.50;;
8885;SDS011;4479;51.162;13.906;2024-03-06T09:12:36;30.37;;;18.77;;
8885;SDS011;4479;51.162;13.906;2024-03-06T09:22:40;27.57;;;16.93;;
8885;SDS011;4479;51.162;13.906;2024-03-06T09:32:42;33.23;;;20.90;;
8885;SDS011;4479;51.162;13.906;2024-03-06T09:42:46;31.43;;;19.33;;
8885;SDS011;4479;51.162;13.906;2024-03-06T09:52:50;42.40;;;27.50;;
8885;SDS011;4479;51.162;13.906;2024-03-06T10:02:58;48.93;;;30.90;;
8885;SDS011;4479;51.162;13.906;2024-03-06T10:13:01;37.10;;;22.97;;
8885;SDS011;4479;51.162;13.906;2024-03-06T10:23:06;32.97;;;21.83;;
8885;SDS011;4479;51.162;13.906;2024-03-06T10:33:09;27.00;;;18.67;;
8885;SDS011;4479;51.162;13.906;2024-03-06T10:43:13;35.50;;;23.30;;
8885;SDS011;4479;51.162;13.906;2024-03-06T10:53:17;33.13;;;22.03;;
8885;SDS011;4479;51.162;13.906;2024-03-06T11:03:20;35.67;;;22.50;;
8885;SDS011;4479;51.162;13.906;2024-03-06T11:13:23;39.10;;;25.43;;
8885;SDS011;4479;51.162;13.906;2024-03-06T11:23:28;35.70;;;21.60;;
8885;SDS011;4479;51.162;13.906;2024-03-06T11:33:37;35.87;;;24.17;;
8885;SDS011;4479;51.162;13.906;2024-03-06T11:43:45;34.10;;;22.70;;
8885;SDS011;4479;51.162;13.906;2024-03-06T11:53:50;31.57;;;21.37;;
8885;SDS011;4479;51.162;13.906;2024-03-06T12:03:55;30.03;;;20.67;;
8885;SDS011;4479;51.162;13.906;2024-03-06T12:13:58;28.57;;;19.60;;
8885;SDS011;4479;51.162;13.906;2024-03-06T12:24:03;23.13;;;16.80;;
8885;SDS011;4479;51.162;13.906;2024-03-06T12:34:06;27.13;;;18.90;;
8885;SDS011;4479;51.162;13.906;2024-03-06T12:44:10;22.20;;;16.43;;
8885;SDS011;4479;51.162;13.906;2024-03-06T12:54:12;27.23;;;19.53;;
8885;SDS011;4479;51.162;13.906;2024-03-06T13:04:16;24.23;;;16.73;;
8885;SDS011;4479;51.162;13.906;2024-03-06T13:14:18;23.93;;;17.17;;
8885;SDS011;4479;51.162;13.906;2024-03-06T13:24:22;23.10;;;14.90;;
8885;SDS011;4479;51.162;13.906;2024-03-06T13:34:24;22.43;;;16.03;;
8885;SDS011;4479;51.162;13.906;2024-03-06T13:44:27;22.53;;;16.03;;
8885;SDS011;4479;51.162;13.906;2024-03-06T13:54:29;24.30;;;15.83;;
8885;SDS011;4479;51.162;13.906;2024-03-06T14:04:33;19.00;;;14.60;;
8885;SDS011;4479;51.162;13.906;2024-03-06T14:14:35;21.40;;;14.23;;
8885;SDS011;4479;51.162;13.906;2024-03-06T14:24:39;19.87;;;14.90;;
8885;SDS011;4479;51.162;13.906;2024-03-06T14:34:41;22.27;;;13.83;;
8885;SDS011;4479;51.162;13.906;2024-03-06T14:44:45;15.70;;;11.03;;
8885;SDS011;4479;51.162;13.906;2024-03-06T14:54:48;13.43;;;9.67;;
8885;SDS011;4479;51.162;13.906;2024-03-06T15:04:52;15.63;;;10.33;;
8885;SDS011;4479;51.162;13.906;2024-03-06T15:14:54;12.50;;;8.93;;
8885;SDS011;4479;51.162;13.906;2024-03-06T15:24:58;12.80;;;10.00;;
8885;SDS011;4479;51.162;13.906;2024-03-06T15:35:00;14.63;;;9.43;;
8885;SDS011;4479;51.162;13.906;2024-03-06T15:45:05;13.43;;;8.33;;
8885;SDS011;4479;51.162;13.906;2024-03-06T15:55:08;11.70;;;8.23;;
8885;SDS011;4479;51.162;13.906;2024-03-06T16:05:12;10.20;;;7.23;;
8885;SDS011;4479;51.162;13.906;2024-03-06T16:15:14;10.50;;;8.03;;
8885;SDS011;4479;51.162;13.906;2024-03-06T16:25:18;10.90;;;8.10;;
8885;SDS011;4479;51.162;13.906;2024-03-06T16:35:20;10.73;;;8.00;;
8885;SDS011;4479;51.162;13.906;2024-03-06T16:45:23;11.60;;;9.07;;
8885;SDS011;4479;51.162;13.906;2024-03-06T16:55:25;12.17;;;9.00;;
8885;SDS011;4479;51.162;13.906;2024-03-06T17:05:32;11.87;;;9.03;;
8885;SDS011;4479;51.162;13.906;2024-03-06T17:15:34;10.63;;;8.40;;
8885;SDS011;4479;51.162;13.906;2024-03-06T17:25:39;20.50;;;13.13;;
8885;SDS011;4479;51.162;13.906;2024-03-06T17:35:41;25.47;;;14.73;;
8885;SDS011;4479;51.162;13.906;2024-03-06T17:45:45;26.53;;;16.37;;
8885;SDS011;4479;51.162;13.906;2024-03-06T17:55:47;21.47;;;13.03;;
8885;SDS011;4479;51.162;13.906;2024-03-06T18:05:51;14.33;;;10.60;;
8885;SDS011;4479;51.162;13.906;2024-03-06T18:15:53;12.10;;;8.73;;
8885;SDS011;4479;51.162;13.906;2024-03-06T18:25:56;14.50;;;9.80;;
8885;SDS011;4479;51.162;13.906;2024-03-06T18:35:59;11.07;;;7.17;;
8885;SDS011;4479;51.162;13.906;2024-03-06T18:46:04;13.23;;;8.90;;
8885;SDS011;4479;51.162;13.906;2024-03-06T18:56:06;13.57;;;8.80;;
8885;SDS011;4479;51.162;13.906;2024-03-06T19:06:11;23.13;;;13.47;;
8885;SDS011;4479;51.162;13.906;2024-03-06T19:16:14;33.60;;;21.60;;
8885;SDS011;4479;51.162;13.906;2024-03-06T19:26:18;17.53;;;11.40;;
8885;SDS011;4479;51.162;13.906;2024-03-06T19:36:20;14.87;;;9.33;;
8885;SDS011;4479;51.162;13.906;2024-03-06T19:46:23;13.40;;;8.17;;
8885;SDS011;4479;51.162;13.906;2024-03-06T19:56:25;12.63;;;8.83;;
8885;SDS011;4479;51.162;13.906;2024-03-06T20:06:29;14.10;;;9.87;;
8885;SDS011;4479;51.162;13.906;2024-03-06T20:16:31;15.03;;;10.47;;
8885;SDS011;4479;51.162;13.906;2024-03-06T20:26:35;15.80;;;9.93;;
8885;SDS011;4479;51.162;13.906;2024-03-06T20:36:37;14.97;;;10.37;;
8885;SDS011;4479;51.162;13.906;2024-03-06T20:46:40;14.70;;;8.80;;
8885;SDS011;4479;51.162;13.906;2024-03-06T20:56:44;11.30;;;7.80;;
8885;SDS011;4479;51.162;13.906;2024-03-06T21:06:48;13.17;;;8.60;;
8885;SDS011;4479;51.162;13.906;2024-03-06T21:16:50;12.77;;;8.40;;
8885;SDS011;4479;51.162;13.906;2024-03-06T21:26:55;12.13;;;8.00;;
8885;SDS011;4479;51.162;13.906;2024-03-06T21:36:58;11.60;;;8.17;;
8885;SDS011;4479;51.162;13.906;2024-03-06T21:47:01;11.00;;;7.43;;
8885;SDS011;4479;51.162;13.906;2024-03-06T21:57:04;11.83;;;8.40;;
8885;SDS011;4479;51.162;13.906;2024-03-06T22:07:12;14.67;;;9.47;;
8885;SDS011;4479;51.162;13.906;2024-03-06T22:17:14;18.07;;;11.10;;
8885;SDS011;4479;51.162;13.906;2024-03-06T22:27:18;15.50;;;9.83;;
8885;SDS011;4479;51.162;13.906;2024-03-06T22:37:20;17.03;;;10.90;;
8885;SDS011;4479;51.162;13.906;2024-03-06T22:47:24;21.27;;;12.53;;
8885;SDS011;4479;51.162;13.906;2024-03-06T22:57:26;23.43;;;13.63;;
8885;SDS011;4479;51.162;13.906;2024-03-06T23:07:29;22.23;;;12.50;;
8885;SDS011;4479;51.162;13.906;2024-03-06T23:17:32;19.23;;;12.00;;
8885;SDS011;4479;51.162;13.906;2024-03-06T23:27:35;24.77;;;14.93;;
8885;SDS011;4479;51.162;13.906;2024-03-06T23:37:38;19.77;;;11.93;;
8885;SDS011;4479;51.162;13.906;2024-03-06T23:47:42;21.23;;;12.53;;
8885;SDS011;4479;51.162;13.906;2024-03-06T23:57:47;23.40;;;12.63;;
